sensor_id;sensor_type;location;lat;lon;timestamp;P1;durP1;ratioP1;P2;durP2;ratioP2
27127;SDS011;14660;49.008;8.390;2023-01-09T00:01:19;4.47;;;1.85;;
27127;SDS011;14660;49.008;8.390;2023-01-09T00:03:48;2.58;;;1.23;;
27127;SDS011;14660;49.008;8.390;2023-01-09T00:06:16;2.08;;;1.10;;
27127;SDS011;14660;49.008;8.390;2023-01-09T00:08:42;1.00;;;0.70;;
27127;SDS011;14660;49.008;8.390;2023-01-09T00:11:09;0.95;;;0.75;;
27127;SDS011;14660;49.008;8.390;2023-01-09T00:13:36;1.52;;;0.60;;
27127;SDS011;14660;49.008;8.390;2023-01-09T00:16:04;0.82;;;0.40;;
27127;SDS011;14660;49.008;8.390;2023-01-09T00:18:33;0.65;;;0.40;;
27127;SDS011;14660;49.008;8.390;2023-01-09T00:21:19;0.50;;;0.35;;
27127;SDS011;14660;49.008;8.390;2023-01-09T00:24:00;0.43;;;0.20;;
27127;SDS011;14660;49.008;8.390;2023-01-09T00:26:27;0.80;;;0.80;;
27127;SDS011;14660;49.008;8.390;2023-01-09T00:28:54;0.47;;;0.32;;
27127;SDS011;14660;49.008;8.390;2023-01-09T00:31:22;1.08;;;0.20;;
27127;SDS011;14660;49.008;8.390;2023-01-09T00:36:35;1.17;;;0.20;;
27127;SDS011;14660;49.008;8.390;2023-01-09T00:39:03;1.48;;;0.17;;
27127;SDS011;14660;49.008;8.390;2023-01-09T00:41:40;0.68;;;0.55;;
27127;SDS011;14660;49.008;8.390;2023-01-09T00:44:12;0.47;;;0.10;;
27127;SDS011;14660;49.008;8.390;2023-01-09T00:47:03;1.42;;;0.20;;
27127;SDS011;14660;49.008;8.390;2023-01-09T00:49:34;0.28;;;0.08;;
27127;SDS011;14660;49.008;8.390;2023-01-09T00:52:02;0.40;;;0.20;;
27127;SDS011;14660;49.008;8.390;2023-01-09T00:54:31;0.68;;;0.20;;
27127;SDS011;14660;49.008;8.390;2023-01-09T00:56:59;0.10;;;0.08;;
27127;SDS011;14660;49.008;8.390;2023-01-09T00:59:26;0.50;;;0.20;;
27127;SDS011;14660;49.008;8.390;2023-01-09T01:01:53;0.38;;;0.22;;
27127;SDS011;14660;49.008;8.390;2023-01-09T01:04:20;0.45;;;0.20;;
27127;SDS011;14660;49.008;8.390;2023-01-09T01:07:05;0.30;;;0.20;;
27127;SDS011;14660;49.008;8.390;2023-01-09T01:09:50;0.20;;;0.20;;
27127;SDS011;14660;49.008;8.390;2023-01-09T01:12:17;0.20;;;0.13;;
27127;SDS011;14660;49.008;8.390;2023-01-09T01:14:44;0.10;;;0.10;;
27127;SDS011;14660;49.008;8.390;2023-01-09T01:17:11;0.30;;;0.20;;
27127;SDS011;14660;49.008;8.390;2023-01-09T01:19:38;0.10;;;0.10;;
27127;SDS011;14660;49.008;8.390;2023-01-09T01:22:05;0.10;;;0.10;;
27127;SDS011;14660;49.008;8.390;2023-01-09T01:24:32;0.10;;;0.10;;
27127;SDS011;14660;49.008;8.390;2023-01-09T01:26:59;0.10;;;0.10;;
27127;SDS011;14660;49.008;8.390;2023-01-09T01:29:26;0.10;;;0.10;;
27127;SDS011;14660;49.008;8.390;2023-01-09T01:31:53;0.20;;;0.10;;
27127;SDS011;14660;49.008;8.390;2023-01-09T01:34:20;0.13;;;0.10;;
27127;SDS011;14660;49.008;8.390;2023-01-09T01:36:46;0.35;;;0.00;;
27127;SDS011;14660;49.008;8.390;2023-01-09T01:39:13;1.10;;;0.30;;
27127;SDS011;14660;49.008;8.390;2023-01-09T01:41:41;0.28;;;0.20;;
27127;SDS011;14660;49.008;8.390;2023-01-09T01:44:55;0.38;;;0.10;;
27127;SDS011;14660;49.008;8.390;2023-01-09T01:47:13;0.15;;;0.10;;
27127;SDS011;14660;49.008;8.390;2023-01-09T01:49:43;0.30;;;0.30;;
27127;SDS011;14660;49.008;8.390;2023-01-09T01:52:11;0.73;;;0.28;;
27127;SDS011;14660;49.008;8.390;2023-01-09T01:54:37;0.10;;;0.10;;
27127;SDS011;14660;49.008;8.390;2023-01-09T01:57:05;0.05;;;0.05;;
27127;SDS011;14660;49.008;8.390;2023-01-09T02:02:21;0.10;;;0.10;;
27127;SDS011;14660;49.008;8.390;2023-01-09T02:04:54;0.20;;;0.10;;
27127;SDS011;14660;49.008;8.390;2023-01-09T02:07:22;0.20;;;0.10;;
27127;SDS011;14660;49.008;8.390;2023-01-09T02:09:49;0.32;;;0.10;;
27127;SDS011;14660;49.008;8.390;2023-01-09T02:15:05;0.30;;;0.20;;
27127;SDS011;14660;49.008;8.390;2023-01-09T02:27:40;0.40;;;0.20;;
27127;SDS011;14660;49.008;8.390;2023-01-09T02:33:41;0.20;;;0.20;;
27127;SDS011;14660;49.008;8.390;2023-01-09T02:44:52;0.60;;;0.50;;
27127;SDS011;14660;49.008;8.390;2023-01-09T02:50:23;0.13;;;0.10;;
27127;SDS011;14660;49.008;8.390;2023-01-09T03:10:52;0.20;;;0.20;;
27127;SDS011;14660;49.008;8.390;2023-01-09T03:13:31;4.13;;;0.40;;
27127;SDS011;14660;49.008;8.390;2023-01-09T03:16:01;0.28;;;0.10;;
27127;SDS011;14660;49.008;8.390;2023-01-09T03:18:32;0.20;;;0.20;;
27127;SDS011;14660;49.008;8.390;2023-01-09T03:21:02;0.10;;;0.10;;
27127;SDS011;14660;49.008;8.390;2023-01-09T03:26:17;0.28;;;0.15;;
27127;SDS011;14660;49.008;8.390;2023-01-09T03:28:44;0.28;;;0.20;;
27127;SDS011;14660;49.008;8.390;2023-01-09T03:31:11;0.35;;;0.10;;
27127;SDS011;14660;49.008;8.390;2023-01-09T03:33:39;0.20;;;0.10;;
27127;SDS011;14660;49.008;8.390;2023-01-09T03:36:06;0.22;;;0.13;;
27127;SDS011;14660;49.008;8.390;2023-01-09T03:38:34;2.35;;;0.40;;
27127;SDS011;14660;49.008;8.390;2023-01-09T03:41:01;0.22;;;0.10;;
27127;SDS011;14660;49.008;8.390;2023-01-09T03:43:28;0.52;;;0.10;;
27127;SDS011;14660;49.008;8.390;2023-01-09T03:45:55;0.10;;;0.10;;
27127;SDS011;14660;49.008;8.390;2023-01-09T03:48:22;0.30;;;0.00;;
27127;SDS011;14660;49.008;8.390;2023-01-09T03:50:50;1.55;;;0.40;;
27127;SDS011;14660;49.008;8.390;2023-01-09T03:53:18;0.30;;;0.10;;
27127;SDS011;14660;49.008;8.390;2023-01-09T03:55:49;1.15;;;0.10;;
27127;SDS011;14660;49.008;8.390;2023-01-09T03:58:18;0.28;;;0.15;;
27127;SDS011;14660;49.008;8.390;2023-01-09T04:00:46;0.20;;;0.10;;
27127;SDS011;14660;49.008;8.390;2023-01-09T04:03:17;1.30;;;0.32;;
27127;SDS011;14660;49.008;8.390;2023-01-09T04:05:46;0.10;;;0.10;;
27127;SDS011;14660;49.008;8.390;2023-01-09T04:08:13;0.80;;;0.10;;
27127;SDS011;14660;49.008;8.390;2023-01-09T04:10:45;0.10;;;0.10;;
27127;SDS011;14660;49.008;8.390;2023-01-09T04:13:13;1.02;;;0.10;;
27127;SDS011;14660;49.008;8.390;2023-01-09T04:15:40;0.25;;;0.20;;
27127;SDS011;14660;49.008;8.390;2023-01-09T04:18:07;0.35;;;0.15;;
27127;SDS011;14660;49.008;8.390;2023-01-09T04:20:34;0.40;;;0.10;;
27127;SDS011;14660;49.008;8.390;2023-01-09T04:23:01;2.38;;;0.20;;
27127;SDS011;14660;49.008;8.390;2023-01-09T04:25:28;0.10;;;0.00;;
27127;SDS011;14660;49.008;8.390;2023-01-09T04:27:54;0.43;;;0.22;;
27127;SDS011;14660;49.008;8.390;2023-01-09T04:30:23;0.10;;;0.10;;
27127;SDS011;14660;49.008;8.390;2023-01-09T04:32:50;1.15;;;0.20;;
27127;SDS011;14660;49.008;8.390;2023-01-09T04:35:17;0.25;;;0.10;;
27127;SDS011;14660;49.008;8.390;2023-01-09T04:37:45;0.50;;;0.08;;
27127;SDS011;14660;49.008;8.390;2023-01-09T04:40:11;0.35;;;0.17;;
27127;SDS011;14660;49.008;8.390;2023-01-09T04:42:39;0.52;;;0.10;;
27127;SDS011;14660;49.008;8.390;2023-01-09T04:45:06;2.63;;;0.15;;
27127;SDS011;14660;49.008;8.390;2023-01-09T04:47:35;0.28;;;0.10;;
27127;SDS011;14660;49.008;8.390;2023-01-09T04:50:02;6.13;;;0.55;;
27127;SDS011;14660;49.008;8.390;2023-01-09T04:52:29;0.50;;;0.10;;
27127;SDS011;14660;49.008;8.390;2023-01-09T04:54:56;0.15;;;0.10;;
27127;SDS011;14660;49.008;8.390;2023-01-09T04:57:23;0.10;;;0.10;;
27127;SDS011;14660;49.008;8.390;2023-01-09T04:59:50;0.20;;;0.10;;
27127;SDS011;14660;49.008;8.390;2023-01-09T05:02:17;4.15;;;0.20;;
27127;SDS011;14660;49.008;8.390;2023-01-09T05:04:44;0.82;;;0.10;;
27127;SDS011;14660;49.008;8.390;2023-01-09T05:07:11;1.80;;;0.10;;
27127;SDS011;14660;49.008;8.390;2023-01-09T05:09:37;0.20;;;0.10;;
27127;SDS011;14660;49.008;8.390;2023-01-09T05:12:04;0.10;;;0.08;;
27127;SDS011;14660;49.008;8.390;2023-01-09T05:14:31;0.28;;;0.20;;
27127;SDS011;14660;49.008;8.390;2023-01-09T05:16:58;0.43;;;0.20;;
27127;SDS011;14660;49.008;8.390;2023-01-09T05:19:25;1.00;;;0.30;;
27127;SDS011;14660;49.008;8.390;2023-01-09T05:21:51;0.95;;;0.43;;
27127;SDS011;14660;49.008;8.390;2023-01-09T05:24:18;1.95;;;0.22;;
27127;SDS011;14660;49.008;8.390;2023-01-09T05:26:44;0.28;;;0.22;;
27127;SDS011;14660;49.008;8.390;2023-01-09T05:29:11;0.75;;;0.30;;
27127;SDS011;14660;49.008;8.390;2023-01-09T05:31:38;0.15;;;0.08;;
27127;SDS011;14660;49.008;8.390;2023-01-09T05:34:05;0.35;;;0.10;;
27127;SDS011;14660;49.008;8.390;2023-01-09T05:36:31;0.22;;;0.17;;
27127;SDS011;14660;49.008;8.390;2023-01-09T05:38:58;0.82;;;0.30;;
27127;SDS011;14660;49.008;8.390;2023-01-09T05:41:27;1.30;;;0.30;;
27127;SDS011;14660;49.008;8.390;2023-01-09T05:43:54;0.50;;;0.10;;
27127;SDS011;14660;49.008;8.390;2023-01-09T05:46:21;1.55;;;0.20;;
27127;SDS011;14660;49.008;8.390;2023-01-09T05:48:47;0.77;;;0.30;;
27127;SDS011;14660;49.008;8.390;2023-01-09T05:51:14;1.20;;;0.20;;
27127;SDS011;14660;49.008;8.390;2023-01-09T05:53:39;0.68;;;0.68;;
27127;SDS011;14660;49.008;8.390;2023-01-09T05:56:06;2.33;;;0.10;;
27127;SDS011;14660;49.008;8.390;2023-01-09T05:58:33;0.65;;;0.30;;
27127;SDS011;14660;49.008;8.390;2023-01-09T06:00:59;2.38;;;0.10;;
27127;SDS011;14660;49.008;8.390;2023-01-09T06:03:27;0.82;;;0.20;;
27127;SDS011;14660;49.008;8.390;2023-01-09T06:05:59;1.08;;;0.10;;
27127;SDS011;14660;49.008;8.390;2023-01-09T06:08:26;0.82;;;0.10;;
27127;SDS011;14660;49.008;8.390;2023-01-09T06:10:53;0.30;;;0.10;;
27127;SDS011;14660;49.008;8.390;2023-01-09T06:13:19;1.05;;;0.20;;
27127;SDS011;14660;49.008;8.390;2023-01-09T06:15:46;0.30;;;0.10;;
27127;SDS011;14660;49.008;8.390;2023-01-09T06:18:13;0.90;;;0.30;;
27127;SDS011;14660;49.008;8.390;2023-01-09T06:20:40;0.30;;;0.10;;
27127;SDS011;14660;49.008;8.390;2023-01-09T06:23:14;0.70;;;0.30;;
27127;SDS011;14660;49.008;8.390;2023-01-09T06:25:41;0.95;;;0.52;;
27127;SDS011;14660;49.008;8.390;2023-01-09T06:28:08;2.70;;;0.30;;
27127;SDS011;14660;49.008;8.390;2023-01-09T06:30:35;1.67;;;0.50;;
27127;SDS011;14660;49.008;8.390;2023-01-09T06:33:01;0.93;;;0.20;;
27127;SDS011;14660;49.008;8.390;2023-01-09T06:35:28;1.38;;;0.20;;
27127;SDS011;14660;49.008;8.390;2023-01-09T06:37:54;1.23;;;0.43;;
27127;SDS011;14660;49.008;8.390;2023-01-09T06:40:23;1.00;;;0.68;;
27127;SDS011;14660;49.008;8.390;2023-01-09T06:42:51;2.38;;;0.55;;
27127;SDS011;14660;49.008;8.390;2023-01-09T06:45:18;1.67;;;0.30;;
27127;SDS011;14660;49.008;8.390;2023-01-09T06:47:45;2.00;;;0.55;;
27127;SDS011;14660;49.008;8.390;2023-01-09T06:50:12;3.72;;;1.60;;
27127;SDS011;14660;49.008;8.390;2023-01-09T06:52:39;2.90;;;0.70;;
27127;SDS011;14660;49.008;8.390;2023-01-09T06:55:06;2.35;;;0.30;;
27127;SDS011;14660;49.008;8.390;2023-01-09T06:57:34;4.13;;;0.60;;
27127;SDS011;14660;49.008;8.390;2023-01-09T07:00:01;4.10;;;0.50;;
27127;SDS011;14660;49.008;8.390;2023-01-09T07:02:28;5.35;;;0.50;;
27127;SDS011;14660;49.008;8.390;2023-01-09T07:04:55;2.05;;;0.77;;
27127;SDS011;14660;49.008;8.390;2023-01-09T07:07:22;1.20;;;0.60;;
27127;SDS011;14660;49.008;8.390;2023-01-09T07:09:49;3.97;;;0.73;;
27127;SDS011;14660;49.008;8.390;2023-01-09T07:12:15;2.55;;;0.50;;
27127;SDS011;14660;49.008;8.390;2023-01-09T07:14:42;1.73;;;0.52;;
27127;SDS011;14660;49.008;8.390;2023-01-09T07:17:10;3.55;;;0.38;;
27127;SDS011;14660;49.008;8.390;2023-01-09T07:19:38;2.72;;;0.68;;
27127;SDS011;14660;49.008;8.390;2023-01-09T07:22:04;1.17;;;0.60;;
27127;SDS011;14660;49.008;8.390;2023-01-09T07:24:31;1.48;;;0.50;;
27127;SDS011;14660;49.008;8.390;2023-01-09T07:26:57;2.80;;;0.40;;
27127;SDS011;14660;49.008;8.390;2023-01-09T07:29:24;1.17;;;0.70;;
27127;SDS011;14660;49.008;8.390;2023-01-09T07:31:51;3.03;;;0.63;;
27127;SDS011;14660;49.008;8.390;2023-01-09T07:34:18;2.75;;;0.50;;
27127;SDS011;14660;49.008;8.390;2023-01-09T07:36:45;1.92;;;0.50;;
27127;SDS011;14660;49.008;8.390;2023-01-09T07:39:13;3.58;;;0.90;;
27127;SDS011;14660;49.008;8.390;2023-01-09T07:41:40;2.00;;;0.55;;
27127;SDS011;14660;49.008;8.390;2023-01-09T07:44:07;4.03;;;0.57;;
27127;SDS011;14660;49.008;8.390;2023-01-09T07:46:34;1.48;;;0.50;;
27127;SDS011;14660;49.008;8.390;2023-01-09T07:49:01;2.08;;;1.33;;
27127;SDS011;14660;49.008;8.390;2023-01-09T07:51:28;3.88;;;0.50;;
27127;SDS011;14660;49.008;8.390;2023-01-09T07:53:55;3.55;;;0.40;;
27127;SDS011;14660;49.008;8.390;2023-01-09T07:56:22;2.10;;;0.40;;
27127;SDS011;14660;49.008;8.390;2023-01-09T07:58:49;1.48;;;0.38;;
27127;SDS011;14660;49.008;8.390;2023-01-09T08:01:16;1.60;;;0.50;;
27127;SDS011;14660;49.008;8.390;2023-01-09T08:03:42;3.67;;;0.50;;
27127;SDS011;14660;49.008;8.390;2023-01-09T08:06:09;1.40;;;0.40;;
27127;SDS011;14660;49.008;8.390;2023-01-09T08:08:35;1.83;;;0.77;;
27127;SDS011;14660;49.008;8.390;2023-01-09T08:11:02;1.02;;;0.40;;
27127;SDS011;14660;49.008;8.390;2023-01-09T08:13:29;1.50;;;0.40;;
27127;SDS011;14660;49.008;8.390;2023-01-09T08:15:55;2.78;;;0.93;;
27127;SDS011;14660;49.008;8.390;2023-01-09T08:18:22;3.90;;;0.70;;
27127;SDS011;14660;49.008;8.390;2023-01-09T08:20:49;2.55;;;0.52;;
27127;SDS011;14660;49.008;8.390;2023-01-09T08:23:16;4.05;;;0.77;;
27127;SDS011;14660;49.008;8.390;2023-01-09T08:25:43;0.77;;;0.40;;
27127;SDS011;14660;49.008;8.390;2023-01-09T08:28:10;1.67;;;0.57;;
27127;SDS011;14660;49.008;8.390;2023-01-09T08:30:37;3.80;;;0.60;;
27127;SDS011;14660;49.008;8.390;2023-01-09T08:33:04;0.93;;;0.30;;
27127;SDS011;14660;49.008;8.390;2023-01-09T08:35:32;3.05;;;0.70;;
27127;SDS011;14660;49.008;8.390;2023-01-09T08:37:59;1.10;;;0.32;;
27127;SDS011;14660;49.008;8.390;2023-01-09T08:40:26;3.53;;;0.55;;
27127;SDS011;14660;49.008;8.390;2023-01-09T08:42:53;3.03;;;0.70;;
27127;SDS011;14660;49.008;8.390;2023-01-09T08:45:39;1.40;;;0.40;;
27127;SDS011;14660;49.008;8.390;2023-01-09T08:48:24;0.95;;;0.30;;
27127;SDS011;14660;49.008;8.390;2023-01-09T08:50:51;2.72;;;0.40;;
27127;SDS011;14660;49.008;8.390;2023-01-09T08:53:19;1.92;;;0.50;;
27127;SDS011;14660;49.008;8.390;2023-01-09T08:55:46;1.25;;;0.30;;
27127;SDS011;14660;49.008;8.390;2023-01-09T09:00:49;2.08;;;0.40;;
27127;SDS011;14660;49.008;8.390;2023-01-09T09:03:22;1.98;;;0.40;;
27127;SDS011;14660;49.008;8.390;2023-01-09T09:05:49;0.98;;;0.28;;
27127;SDS011;14660;49.008;8.390;2023-01-09T09:08:19;5.15;;;0.63;;
27127;SDS011;14660;49.008;8.390;2023-01-09T09:10:46;1.00;;;0.40;;
27127;SDS011;14660;49.008;8.390;2023-01-09T09:13:13;1.65;;;0.88;;
27127;SDS011;14660;49.008;8.390;2023-01-09T09:15:39;1.83;;;0.35;;
27127;SDS011;14660;49.008;8.390;2023-01-09T09:18:06;1.13;;;0.40;;
27127;SDS011;14660;49.008;8.390;2023-01-09T09:20:35;5.47;;;0.82;;
27127;SDS011;14660;49.008;8.390;2023-01-09T09:23:04;0.60;;;0.30;;
27127;SDS011;14660;49.008;8.390;2023-01-09T09:25:34;5.97;;;0.65;;
27127;SDS011;14660;49.008;8.390;2023-01-09T09:28:03;4.03;;;0.60;;
27127;SDS011;14660;49.008;8.390;2023-01-09T09:30:30;3.20;;;0.30;;
27127;SDS011;14660;49.008;8.390;2023-01-09T09:32:57;1.67;;;0.30;;
27127;SDS011;14660;49.008;8.390;2023-01-09T09:35:24;0.57;;;0.32;;
27127;SDS011;14660;49.008;8.390;2023-01-09T09:37:55;1.15;;;0.30;;
27127;SDS011;14660;49.008;8.390;2023-01-09T09:40:30;4.82;;;0.65;;
27127;SDS011;14660;49.008;8.390;2023-01-09T09:43:10;2.22;;;0.40;;
27127;SDS011;14660;49.008;8.390;2023-01-09T09:54:32;1.95;;;0.73;;
27127;SDS011;14660;49.008;8.390;2023-01-09T09:57:03;3.85;;;0.40;;
27127;SDS011;14660;49.008;8.390;2023-01-09T09:59:35;1.58;;;0.55;;
27127;SDS011;14660;49.008;8.390;2023-01-09T10:05:16;3.70;;;0.70;;
27127;SDS011;14660;49.008;8.390;2023-01-09T10:08:12;1.20;;;0.45;;
27127;SDS011;14660;49.008;8.390;2023-01-09T10:11:16;1.42;;;0.40;;
27127;SDS011;14660;49.008;8.390;2023-01-09T10:13:47;2.28;;;0.43;;
27127;SDS011;14660;49.008;8.390;2023-01-09T10:25:44;1.63;;;0.40;;
27127;SDS011;14660;49.008;8.390;2023-01-09T10:37:33;1.80;;;0.80;;
27127;SDS011;14660;49.008;8.390;2023-01-09T10:45:55;1.75;;;0.40;;
27127;SDS011;14660;49.008;8.390;2023-01-09T10:48:28;4.07;;;1.20;;
27127;SDS011;14660;49.008;8.390;2023-01-09T10:51:00;0.98;;;0.52;;
27127;SDS011;14660;49.008;8.390;2023-01-09T10:53:32;2.45;;;0.47;;
27127;SDS011;14660;49.008;8.390;2023-01-09T10:56:10;4.75;;;1.05;;
27127;SDS011;14660;49.008;8.390;2023-01-09T10:58:44;2.28;;;0.60;;
27127;SDS011;14660;49.008;8.390;2023-01-09T11:01:10;1.75;;;0.30;;
27127;SDS011;14660;49.008;8.390;2023-01-09T11:03:37;3.30;;;1.33;;
27127;SDS011;14660;49.008;8.390;2023-01-09T11:06:12;1.20;;;0.50;;
27127;SDS011;14660;49.008;8.390;2023-01-09T11:08:47;3.60;;;0.60;;
27127;SDS011;14660;49.008;8.390;2023-01-09T11:17:00;5.30;;;0.60;;
27127;SDS011;14660;49.008;8.390;2023-01-09T11:19:29;2.65;;;0.60;;
27127;SDS011;14660;49.008;8.390;2023-01-09T11:24:43;2.53;;;0.75;;
27127;SDS011;14660;49.008;8.390;2023-01-09T11:32:40;2.03;;;0.80;;
27127;SDS011;14660;49.008;8.390;2023-01-09T11:35:14;4.03;;;0.57;;
27127;SDS011;14660;49.008;8.390;2023-01-09T11:40:50;5.22;;;1.25;;
27127;SDS011;14660;49.008;8.390;2023-01-09T11:46:10;4.15;;;0.90;;
27127;SDS011;14660;49.008;8.390;2023-01-09T11:57:35;3.45;;;1.00;;
27127;SDS011;14660;49.008;8.390;2023-01-09T12:00:05;6.50;;;0.65;;
27127;SDS011;14660;49.008;8.390;2023-01-09T12:39:02;2.30;;;0.70;;
27127;SDS011;14660;49.008;8.390;2023-01-09T12:53:49;7.93;;;1.30;;
27127;SDS011;14660;49.008;8.390;2023-01-09T12:56:37;4.63;;;1.52;;
27127;SDS011;14660;49.008;8.390;2023-01-09T13:02:05;3.97;;;0.68;;
27127;SDS011;14660;49.008;8.390;2023-01-09T13:04:39;2.78;;;0.60;;
27127;SDS011;14660;49.008;8.390;2023-01-09T13:07:33;2.53;;;0.88;;
27127;SDS011;14660;49.008;8.390;2023-01-09T13:12:58;2.10;;;0.80;;
27127;SDS011;14660;49.008;8.390;2023-01-09T13:21:07;3.25;;;0.80;;
27127;SDS011;14660;49.008;8.390;2023-01-09T13:23:47;1.90;;;0.85;;
27127;SDS011;14660;49.008;8.390;2023-01-09T13:35:14;2.93;;;0.73;;
27127;SDS011;14660;49.008;8.390;2023-01-09T13:45:44;3.75;;;1.15;;
27127;SDS011;14660;49.008;8.390;2023-01-09T13:48:16;4.50;;;2.67;;
27127;SDS011;14660;49.008;8.390;2023-01-09T13:50:51;5.75;;;1.67;;
27127;SDS011;14660;49.008;8.390;2023-01-09T13:56:09;6.57;;;3.22;;
27127;SDS011;14660;49.008;8.390;2023-01-09T14:01:40;3.72;;;2.65;;
27127;SDS011;14660;49.008;8.390;2023-01-09T14:07:14;3.60;;;1.20;;
27127;SDS011;14660;49.008;8.390;2023-01-09T14:09:47;5.03;;;1.23;;
27127;SDS011;14660;49.008;8.390;2023-01-09T14:12:18;2.58;;;0.63;;
27127;SDS011;14660;49.008;8.390;2023-01-09T14:14:46;3.25;;;0.43;;
27127;SDS011;14660;49.008;8.390;2023-01-09T14:17:24;1.67;;;0.98;;
27127;SDS011;14660;49.008;8.390;2023-01-09T14:19:56;2.20;;;0.80;;
27127;SDS011;14660;49.008;8.390;2023-01-09T14:22:25;2.15;;;0.65;;
27127;SDS011;14660;49.008;8.390;2023-01-09T14:33:29;1.17;;;0.30;;
27127;SDS011;14660;49.008;8.390;2023-01-09T14:44:47;1.50;;;0.55;;
27127;SDS011;14660;49.008;8.390;2023-01-09T14:55:54;3.20;;;0.57;;
27127;SDS011;14660;49.008;8.390;2023-01-09T15:01:17;3.65;;;0.50;;
27127;SDS011;14660;49.008;8.390;2023-01-09T15:03:55;1.88;;;0.60;;
27127;SDS011;14660;49.008;8.390;2023-01-09T15:12:07;1.90;;;0.60;;
27127;SDS011;14660;49.008;8.390;2023-01-09T15:14:39;1.25;;;0.47;;
27127;SDS011;14660;49.008;8.390;2023-01-09T15:20:19;0.73;;;0.57;;
27127;SDS011;14660;49.008;8.390;2023-01-09T15:22:50;1.92;;;0.57;;
27127;SDS011;14660;49.008;8.390;2023-01-09T15:25:25;1.50;;;0.47;;
27127;SDS011;14660;49.008;8.390;2023-01-09T15:27:55;5.30;;;0.60;;
27127;SDS011;14660;49.008;8.390;2023-01-09T15:33:10;2.05;;;0.85;;
27127;SDS011;14660;49.008;8.390;2023-01-09T15:35:41;2.85;;;1.45;;
27127;SDS011;14660;49.008;8.390;2023-01-09T15:38:13;5.65;;;2.30;;
27127;SDS011;14660;49.008;8.390;2023-01-09T15:40:57;4.75;;;1.77;;
27127;SDS011;14660;49.008;8.390;2023-01-09T15:43:27;4.15;;;1.00;;
27127;SDS011;14660;49.008;8.390;2023-01-09T15:45:55;2.90;;;1.05;;
27127;SDS011;14660;49.008;8.390;2023-01-09T15:53:53;3.70;;;0.90;;
27127;SDS011;14660;49.008;8.390;2023-01-09T15:59:25;3.78;;;1.10;;
27127;SDS011;14660;49.008;8.390;2023-01-09T16:01:58;1.75;;;0.73;;
27127;SDS011;14660;49.008;8.390;2023-01-09T16:04:45;3.55;;;0.90;;
27127;SDS011;14660;49.008;8.390;2023-01-09T16:07:17;3.13;;;1.10;;
27127;SDS011;14660;49.008;8.390;2023-01-09T16:09:45;2.10;;;1.02;;
27127;SDS011;14660;49.008;8.390;2023-01-09T16:12:23;4.70;;;1.20;;
27127;SDS011;14660;49.008;8.390;2023-01-09T16:14:55;3.47;;;1.42;;
27127;SDS011;14660;49.008;8.390;2023-01-09T16:17:24;1.92;;;0.98;;
27127;SDS011;14660;49.008;8.390;2023-01-09T16:22:53;5.93;;;1.52;;
27127;SDS011;14660;49.008;8.390;2023-01-09T16:31:06;4.80;;;1.30;;
27127;SDS011;14660;49.008;8.390;2023-01-09T16:33:46;3.60;;;1.20;;
27127;SDS011;14660;49.008;8.390;2023-01-09T16:36:17;3.38;;;2.20;;
27127;SDS011;14660;49.008;8.390;2023-01-09T16:38:44;3.95;;;1.15;;
27127;SDS011;14660;49.008;8.390;2023-01-09T16:41:17;3.65;;;1.48;;
27127;SDS011;14660;49.008;8.390;2023-01-09T16:44:04;5.70;;;1.08;;
27127;SDS011;14660;49.008;8.390;2023-01-09T16:46:43;1.52;;;0.75;;
27127;SDS011;14660;49.008;8.390;2023-01-09T16:51:54;1.73;;;0.63;;
27127;SDS011;14660;49.008;8.390;2023-01-09T16:56:55;9.13;;;5.30;;
27127;SDS011;14660;49.008;8.390;2023-01-09T16:59:23;8.02;;;4.47;;
27127;SDS011;14660;49.008;8.390;2023-01-09T17:01:53;6.72;;;2.25;;
27127;SDS011;14660;49.008;8.390;2023-01-09T17:04:20;1.80;;;0.80;;
27127;SDS011;14660;49.008;8.390;2023-01-09T17:06:48;3.55;;;1.35;;
27127;SDS011;14660;49.008;8.390;2023-01-09T17:09:17;2.95;;;0.90;;
27127;SDS011;14660;49.008;8.390;2023-01-09T17:11:45;1.27;;;0.90;;
27127;SDS011;14660;49.008;8.390;2023-01-09T17:14:12;1.48;;;0.93;;
27127;SDS011;14660;49.008;8.390;2023-01-09T17:16:39;1.13;;;0.90;;
27127;SDS011;14660;49.008;8.390;2023-01-09T17:19:17;1.98;;;0.73;;
27127;SDS011;14660;49.008;8.390;2023-01-09T17:21:45;9.35;;;3.33;;
27127;SDS011;14660;49.008;8.390;2023-01-09T17:24:12;26.23;;;9.77;;
27127;SDS011;14660;49.008;8.390;2023-01-09T17:26:57;17.88;;;5.03;;
27127;SDS011;14660;49.008;8.390;2023-01-09T17:29:45;4.05;;;1.80;;
27127;SDS011;14660;49.008;8.390;2023-01-09T17:32:13;3.63;;;0.95;;
27127;SDS011;14660;49.008;8.390;2023-01-09T17:34:41;4.20;;;1.55;;
27127;SDS011;14660;49.008;8.390;2023-01-09T17:37:12;3.15;;;1.35;;
27127;SDS011;14660;49.008;8.390;2023-01-09T17:39:40;2.13;;;1.50;;
27127;SDS011;14660;49.008;8.390;2023-01-09T17:42:08;3.70;;;1.23;;
27127;SDS011;14660;49.008;8.390;2023-01-09T17:44:34;3.25;;;1.20;;
27127;SDS011;14660;49.008;8.390;2023-01-09T17:47:01;3.22;;;0.95;;
27127;SDS011;14660;49.008;8.390;2023-01-09T17:49:28;2.63;;;1.17;;
27127;SDS011;14660;49.008;8.390;2023-01-09T17:51:55;3.53;;;0.90;;
27127;SDS011;14660;49.008;8.390;2023-01-09T17:54:22;1.25;;;0.77;;
27127;SDS011;14660;49.008;8.390;2023-01-09T17:56:49;5.07;;;1.35;;
27127;SDS011;14660;49.008;8.390;2023-01-09T17:59:17;1.33;;;0.77;;
27127;SDS011;14660;49.008;8.390;2023-01-09T18:01:42;1.83;;;1.10;;
27127;SDS011;14660;49.008;8.390;2023-01-09T18:04:10;2.20;;;1.02;;
27127;SDS011;14660;49.008;8.390;2023-01-09T18:06:37;2.35;;;0.80;;
27127;SDS011;14660;49.008;8.390;2023-01-09T18:09:04;3.25;;;1.13;;
27127;SDS011;14660;49.008;8.390;2023-01-09T18:11:32;1.73;;;0.93;;
27127;SDS011;14660;49.008;8.390;2023-01-09T18:13:59;2.30;;;1.50;;
27127;SDS011;14660;49.008;8.390;2023-01-09T18:16:27;1.65;;;0.80;;
27127;SDS011;14660;49.008;8.390;2023-01-09T18:19:00;3.13;;;1.05;;
27127;SDS011;14660;49.008;8.390;2023-01-09T18:21:27;2.78;;;1.25;;
27127;SDS011;14660;49.008;8.390;2023-01-09T18:23:55;2.22;;;0.80;;
27127;SDS011;14660;49.008;8.390;2023-01-09T18:26:23;2.90;;;1.42;;
27127;SDS011;14660;49.008;8.390;2023-01-09T18:28:58;2.67;;;0.85;;
27127;SDS011;14660;49.008;8.390;2023-01-09T18:31:26;2.42;;;1.00;;
27127;SDS011;14660;49.008;8.390;2023-01-09T18:33:57;2.25;;;1.27;;
27127;SDS011;14660;49.008;8.390;2023-01-09T18:36:26;2.53;;;1.13;;
27127;SDS011;14660;49.008;8.390;2023-01-09T18:38:58;3.03;;;0.90;;
27127;SDS011;14660;49.008;8.390;2023-01-09T18:41:26;2.75;;;0.70;;
27127;SDS011;14660;49.008;8.390;2023-01-09T18:43:54;1.63;;;0.70;;
27127;SDS011;14660;49.008;8.390;2023-01-09T18:46:22;2.10;;;1.65;;
27127;SDS011;14660;49.008;8.390;2023-01-09T18:48:51;2.88;;;0.90;;
27127;SDS011;14660;49.008;8.390;2023-01-09T18:51:19;2.08;;;0.82;;
27127;SDS011;14660;49.008;8.390;2023-01-09T18:53:47;3.20;;;0.90;;
27127;SDS011;14660;49.008;8.390;2023-01-09T18:56:14;4.28;;;1.27;;
27127;SDS011;14660;49.008;8.390;2023-01-09T18:58:41;1.90;;;0.90;;
27127;SDS011;14660;49.008;8.390;2023-01-09T19:01:08;3.10;;;1.10;;
27127;SDS011;14660;49.008;8.390;2023-01-09T19:03:35;4.07;;;1.15;;
27127;SDS011;14660;49.008;8.390;2023-01-09T19:06:02;3.05;;;1.60;;
27127;SDS011;14660;49.008;8.390;2023-01-09T19:08:32;6.82;;;2.28;;
27127;SDS011;14660;49.008;8.390;2023-01-09T19:11:00;2.33;;;1.40;;
27127;SDS011;14660;49.008;8.390;2023-01-09T19:13:31;2.88;;;1.25;;
27127;SDS011;14660;49.008;8.390;2023-01-09T19:15:59;2.03;;;1.30;;
27127;SDS011;14660;49.008;8.390;2023-01-09T19:18:27;3.92;;;1.50;;
27127;SDS011;14660;49.008;8.390;2023-01-09T19:20:57;5.30;;;2.17;;
27127;SDS011;14660;49.008;8.390;2023-01-09T19:23:24;2.80;;;1.45;;
27127;SDS011;14660;49.008;8.390;2023-01-09T19:25:51;7.22;;;1.48;;
27127;SDS011;14660;49.008;8.390;2023-01-09T19:28:19;7.75;;;3.55;;
27127;SDS011;14660;49.008;8.390;2023-01-09T19:30:46;13.73;;;7.10;;
27127;SDS011;14660;49.008;8.390;2023-01-09T19:33:21;6.80;;;3.33;;